CheckWX is a tool to help pilots better visualize weather data.  It is not intended as a substitute for an official pre-flight weather briefing.

17:29:13 UTC

MMMZ TAF
General Rafael Buelna International Airport
Mazatlán, Mexico
TAF MMMZ 241021Z 2412/2518 00000KT P6SM SKC TX30/2420Z TN12/2412Z FM241800 24010KT P6SM SKC FM250400 23005KT P6SM SKC FM251800 23010KT P6SM SKC

Mar-24@
12:00 UTC

Mar-24 @ 12:00 UTC

Mar-24@
18:00 UTC

Mar-24 @ 18:00 UTC

TAF MMMZ 241021Z 2412/2518 00000KT P6SM SKC TX30/2420Z TN12/2412Z
Cloud Levels
  • Clear skies

Mar-24@
18:00 UTC

Mar-24 @ 18:00 UTC

Mar-25@
04:00 UTC

Mar-25 @ 04:00 UTC

FM241800 24010KT P6SM SKC

From

From Standard forecast or significant change

Wind
  • 240° at 10 KTS
Cloud Levels
  • Clear skies

Mar-25@
04:00 UTC

Mar-25 @ 04:00 UTC

Mar-25@
18:00 UTC

Mar-25 @ 18:00 UTC

FM250400 23005KT P6SM SKC

From

From Standard forecast or significant change

Wind
  • 230° at 5 KTS
Cloud Levels
  • Clear skies

Mar-25@
18:00 UTC

Mar-25 @ 18:00 UTC

Mar-25@
18:00 UTC

Mar-25 @ 18:00 UTC

FM251800 23010KT P6SM SKC

From

From Standard forecast or significant change

Wind
  • 230° at 10 KTS
Cloud Levels
  • Clear skies